Time;durP1;ratioP1;P1;durP2;ratioP2;P2;SDS_P1;SDS_P2;PMS_P1;PMS_P2;Temp;Humidity;BMP_temperature;BMP_pressure;BME280_temperature;BME280_humidity;BME280_pressure;Samples;Min_cycle;Max_cycle;Signal;HPM_P1;HPM_P2
2021/07/30 00:01:13;;;;;;;9.78;8.55;;;;;;;28.04;63.86;99094.89;1828890;76;21860;-61
2021/07/30 00:03:40;;;;;;;8.60;7.70;;;;;;;28.05;63.80;99094.36;1827927;77;20994;-61
2021/07/30 00:06:06;;;;;;;8.38;7.53;;;;;;;28.04;63.76;99090.80;1822595;76;21039;-59
2021/07/30 00:08:32;;;;;;;9.18;8.08;;;;;;;28.04;63.71;99093.52;1830930;76;21071;-60
2021/07/30 00:10:59;;;;;;;9.75;7.90;;;;;;;28.04;63.58;99094.09;1825000;76;20982;-59
2021/07/30 00:13:25;;;;;;;10.00;8.23;;;;;;;28.04;63.52;99083.97;1825572;76;21737;-62
2021/07/30 00:15:52;;;;;;;8.78;7.97;;;;;;;28.03;63.40;99079.64;1830209;76;21112;-61
2021/07/30 00:18:18;;;;;;;11.55;8.00;;;;;;;28.04;63.34;99077.70;1827194;76;21027;-62
2021/07/30 00:20:45;;;;;;;11.20;8.43;;;;;;;28.04;63.37;99079.07;1826110;77;21038;-61
2021/07/30 00:23:12;;;;;;;12.60;8.18;;;;;;;28.03;63.29;99075.54;1828123;76;21985;-61
2021/07/30 00:25:38;;;;;;;9.98;7.70;;;;;;;28.03;63.17;99068.72;1768730;79;21109;-60
2021/07/30 00:28:05;;;;;;;9.75;8.03;;;;;;;28.02;63.17;99062.98;1772533;79;21144;-60
2021/07/30 00:30:31;;;;;;;9.00;8.10;;;;;;;28.02;63.13;99059.45;1768216;79;20998;-61
2021/07/30 00:32:58;;;;;;;9.83;8.80;;;;;;;28.01;63.09;99057.29;1771533;79;21073;-61
2021/07/30 00:35:25;;;;;;;9.70;8.73;;;;;;;28.02;62.98;99062.98;1768992;80;22457;-60
2021/07/30 00:37:52;;;;;;;9.00;7.95;;;;;;;28.01;62.91;99057.85;1727210;82;21229;-60
2021/07/30 00:40:18;;;;;;;10.28;8.40;;;;;;;28.01;62.73;99060.02;1770750;79;21067;-60
2021/07/30 00:42:52;;;;;;;9.40;8.05;;;;;;;28.00;62.63;99059.75;1773031;79;21956;-59
2021/07/30 00:45:19;;;;;;;8.83;8.03;;;;;;;27.99;62.60;99056.78;1765667;79;21063;-61
2021/07/30 00:47:48;;;;;;;9.05;8.28;;;;;;;27.98;62.48;99052.98;1761313;80;21626;-60
2021/07/30 00:50:17;;;;;;;9.35;8.28;;;;;;;27.97;62.53;99051.34;1763438;80;21167;-60
2021/07/30 00:52:48;;;;;;;9.90;8.43;;;;;;;27.96;62.55;99049.74;1763491;80;21009;-60
2021/07/30 00:55:16;;;;;;;9.75;8.95;;;;;;;27.94;62.42;99054.13;1771704;80;21091;-60
2021/07/30 00:57:44;;;;;;;8.58;7.80;;;;;;;27.93;62.37;99054.42;1765084;80;21080;-60
2021/07/30 01:00:14;;;;;;;8.03;7.22;;;;;;;27.93;62.27;99048.44;1765443;79;21044;-61
2021/07/30 01:02:43;;;;;;;9.10;8.30;;;;;;;27.91;62.20;99047.92;1760487;80;21805;-60
2021/07/30 01:05:15;;;;;;;7.85;7.12;;;;;;;27.92;62.05;99054.19;1756453;80;21658;-61
2021/07/30 01:07:44;;;;;;;8.45;7.58;;;;;;;27.92;61.95;99053.63;1774033;79;21328;-61
2021/07/30 01:10:12;;;;;;;7.58;6.97;;;;;;;27.90;61.81;99053.11;1765538;79;21049;-60
2021/07/30 01:12:41;;;;;;;7.53;6.78;;;;;;;27.90;61.75;99047.66;1773926;79;21124;-61
2021/07/30 01:15:09;;;;;;;8.08;7.37;;;;;;;27.90;61.71;99053.67;1768873;79;21087;-64
2021/07/30 01:17:40;;;;;;;7.97;7.17;;;;;;;27.89;61.72;99054.77;1777629;79;21044;-59
2021/07/30 01:20:13;;;;;;;8.33;7.62;;;;;;;27.87;61.70;99053.67;1771437;79;21110;-60
2021/07/30 01:22:53;;;;;;;9.28;8.35;;;;;;;27.87;61.72;99057.77;1770160;79;21103;-61
2021/07/30 01:25:21;;;;;;;7.78;7.08;;;;;;;27.86;61.72;99053.43;1781341;78;21576;-60
2021/07/30 01:27:51;;;;;;;9.30;7.58;;;;;;;27.86;61.71;99061.63;1748441;80;21124;-60
2021/07/30 01:30:21;;;;;;;8.35;7.55;;;;;;;27.84;61.63;99055.66;1789368;78;21146;-62
2021/07/30 01:32:48;;;;;;;8.25;7.45;;;;;;;27.83;61.56;99056.22;1790011;78;21665;-61
2021/07/30 01:35:14;;;;;;;8.05;7.45;;;;;;;27.82;61.47;99053.78;1789495;78;21046;-60
2021/07/30 01:37:41;;;;;;;8.15;7.12;;;;;;;27.81;61.38;99062.50;1789209;79;21509;-60
2021/07/30 01:40:09;;;;;;;8.00;7.30;;;;;;;27.81;61.39;99064.42;1764367;80;21092;-59
2021/07/30 01:42:37;;;;;;;7.75;6.97;;;;;;;27.80;61.35;99057.36;1787793;79;21046;-61
2021/07/30 01:45:07;;;;;;;7.92;7.12;;;;;;;27.79;61.27;99055.16;1755135;80;21082;-60
2021/07/30 01:47:34;;;;;;;7.97;7.25;;;;;;;27.80;61.29;99062.82;1764204;80;21009;-60
2021/07/30 01:50:01;;;;;;;7.25;6.55;;;;;;;27.78;61.18;99063.11;1763045;80;21085;-60
2021/07/30 01:52:27;;;;;;;8.15;7.37;;;;;;;27.78;61.18;99067.20;1790556;79;22035;-61
2021/07/30 01:54:54;;;;;;;8.13;7.30;;;;;;;27.77;61.12;99069.66;1790482;78;21117;-60
2021/07/30 01:57:20;;;;;;;7.53;6.92;;;;;;;27.76;61.07;99066.70;1792038;78;21102;-60
2021/07/30 01:59:47;;;;;;;7.08;6.47;;;;;;;27.76;61.01;99068.63;1787291;79;21611;-60
2021/07/30 02:02:13;;;;;;;7.47;6.78;;;;;;;27.76;61.07;99075.45;1788590;78;21033;-60
2021/07/30 02:04:39;;;;;;;8.05;6.53;;;;;;;27.76;61.00;99075.45;1789393;79;21096;-60
2021/07/30 02:07:06;;;;;;;8.15;7.35;;;;;;;27.75;61.02;99071.08;1783978;78;21053;-59
2021/07/30 02:09:32;;;;;;;7.40;6.70;;;;;;;27.73;61.00;99078.19;1785518;79;21096;-60
2021/07/30 02:11:59;;;;;;;9.08;7.22;;;;;;;27.72;61.02;99077.95;1792230;78;21088;-61
2021/07/30 02:14:28;;;;;;;7.08;6.47;;;;;;;27.72;61.05;99071.13;1792017;78;20985;-60
2021/07/30 02:16:56;;;;;;;7.70;7.00;;;;;;;27.71;60.99;99079.61;1787513;78;21136;-60
2021/07/30 02:19:23;;;;;;;8.00;7.03;;;;;;;27.69;61.01;99076.38;1789866;78;21565;-65
2021/07/30 02:21:54;;;;;;;7.28;6.58;;;;;;;27.69;60.95;99081.83;1788062;78;21055;-60
2021/07/30 02:24:21;;;;;;;7.93;7.23;;;;;;;27.68;60.98;99081.02;1787763;78;21171;-62
2021/07/30 02:26:47;;;;;;;7.47;6.78;;;;;;;27.67;60.96;99085.41;1761938;79;21029;-60
2021/07/30 02:29:13;;;;;;;6.75;6.15;;;;;;;27.65;60.99;99087.86;1759901;79;21610;-60
2021/07/30 02:31:40;;;;;;;6.92;6.35;;;;;;;27.64;60.95;99087.63;1755571;79;21041;-61
2021/07/30 02:34:07;;;;;;;7.42;6.72;;;;;;;27.63;60.95;99091.45;1767291;79;21070;-60
2021/07/30 02:36:33;;;;;;;7.45;6.58;;;;;;;27.64;60.88;99097.70;1778226;79;21464;-61
2021/07/30 02:39:00;;;;;;;7.80;7.10;;;;;;;27.63;60.74;99102.92;1780302;78;21409;-61
2021/07/30 02:41:28;;;;;;;7.58;6.87;;;;;;;27.63;60.67;99094.17;1780723;78;21207;-59
2021/07/30 02:43:56;;;;;;;7.20;6.50;;;;;;;27.62;60.71;99100.75;1777137;78;21084;-61
2021/07/30 02:46:25;;;;;;;7.10;6.50;;;;;;;27.63;60.67;99098.27;1777415;78;21052;-60
2021/07/30 02:48:51;;;;;;;8.55;7.83;;;;;;;27.63;60.72;99108.38;1775027;78;21053;-61
2021/07/30 02:51:18;;;;;;;7.45;6.60;;;;;;;27.62;60.56;99107.58;1777293;78;21080;-60
2021/07/30 02:53:44;;;;;;;7.72;7.03;;;;;;;27.62;60.58;99108.94;1776183;78;21863;-61
2021/07/30 02:56:11;;;;;;;8.50;6.78;;;;;;;27.62;60.57;99117.66;1776800;78;21076;-60
2021/07/30 02:58:38;;;;;;;8.33;7.62;;;;;;;27.61;60.58;99122.88;1779763;78;21057;-57
2021/07/30 03:01:04;;;;;;;8.73;7.83;;;;;;;27.61;60.49;99125.59;1777032;78;21076;-60
2021/07/30 03:03:31;;;;;;;8.43;7.62;;;;;;;27.61;60.37;99130.49;1778032;78;21029;-61
2021/07/30 03:06:00;;;;;;;8.48;7.65;;;;;;;27.60;60.42;99128.89;1770848;78;21143;-60
2021/07/30 03:08:27;;;;;;;8.45;7.70;;;;;;;27.60;60.44;99128.89;1761074;79;21049;-61
2021/07/30 03:10:56;;;;;;;8.43;7.47;;;;;;;27.59;60.53;99138.16;1756869;79;21065;-61
2021/07/30 03:13:23;;;;;;;7.97;7.37;;;;;;;27.60;60.57;99136.23;1779573;78;21571;-60
2021/07/30 03:15:55;;;;;;;8.63;7.92;;;;;;;27.59;60.51;99140.89;1772440;78;21088;-60
2021/07/30 03:18:23;;;;;;;8.35;7.55;;;;;;;27.59;60.57;99139.53;1739435;81;21167;-61
2021/07/30 03:20:49;;;;;;;8.43;7.72;;;;;;;27.59;60.59;99139.53;1756702;79;21061;-60
2021/07/30 03:23:15;;;;;;;9.30;8.45;;;;;;;27.58;60.64;99146.11;1777322;78;20985;-60
2021/07/30 03:25:43;;;;;;;8.58;7.78;;;;;;;27.58;60.56;99146.11;1799149;77;21018;-61
2021/07/30 03:28:09;;;;;;;8.53;7.72;;;;;;;27.59;60.57;99152.37;1808688;77;21553;-59
2021/07/30 03:30:36;;;;;;;8.50;7.62;;;;;;;27.59;60.45;99155.90;1813576;77;21735;-59
2021/07/30 03:33:04;;;;;;;8.68;7.92;;;;;;;27.59;60.51;99156.45;1757971;79;21049;-60
2021/07/30 03:35:30;;;;;;;8.33;7.50;;;;;;;27.55;60.47;99157.59;1806235;78;21041;-60
2021/07/30 03:37:57;;;;;;;8.80;7.90;;;;;;;27.58;60.51;99161.11;1800995;78;21035;-60
2021/07/30 03:40:25;;;;;;;8.30;7.50;;;;;;;27.58;60.52;99168.46;1803148;78;21139;-60
2021/07/30 03:42:51;;;;;;;8.20;7.45;;;;;;;27.58;60.48;99173.92;1795376;78;21109;-60
2021/07/30 03:45:18;;;;;;;8.85;7.90;;;;;;;27.57;60.37;99173.67;1758108;79;21617;-61
2021/07/30 03:47:44;;;;;;;9.15;8.35;;;;;;;27.60;60.33;99179.89;1808126;78;21043;-60
2021/07/30 03:50:11;;;;;;;9.18;8.18;;;;;;;27.61;60.24;99184.25;1805938;78;21548;-60
2021/07/30 03:52:37;;;;;;;9.73;7.67;;;;;;;27.62;60.18;99182.60;1802564;78;21000;-60
2021/07/30 03:55:05;;;;;;;7.85;7.15;;;;;;;27.61;60.06;99191.08;1808125;78;21104;-60
2021/07/30 03:57:31;;;;;;;8.63;7.83;;;;;;;27.61;60.03;99193.80;1802359;78;21085;-59
2021/07/30 03:59:57;;;;;;;8.15;7.37;;;;;;;27.61;60.02;99191.88;1765769;80;21032;-58
2021/07/30 04:02:23;;;;;;;7.87;7.17;;;;;;;27.62;59.96;99191.31;1803613;77;21102;-60
2021/07/30 04:04:52;;;;;;;8.80;7.17;;;;;;;27.65;60.04;99201.09;1805934;78;21015;-60
2021/07/30 04:07:18;;;;;;;8.08;7.40;;;;;;;27.65;59.98;99201.09;1802069;78;21216;-61
2021/07/30 04:09:44;;;;;;;8.30;7.47;;;;;;;27.67;59.92;99207.63;1758279;79;21559;-58
2021/07/30 04:12:11;;;;;;;7.87;7.28;;;;;;;27.68;59.97;99210.63;1792855;78;21036;-60
2021/07/30 04:14:39;;;;;;;8.35;7.55;;;;;;;27.68;59.88;99210.63;1805558;77;21486;-60
2021/07/30 04:17:08;;;;;;;7.12;6.50;;;;;;;27.70;59.90;99215.23;1805803;77;21752;-60
2021/07/30 04:19:35;;;;;;;8.13;7.42;;;;;;;27.70;59.85;99217.97;1805676;78;21190;-60
2021/07/30 04:22:01;;;;;;;7.58;6.97;;;;;;;27.72;59.89;99214.38;1804894;78;21053;-59
2021/07/30 04:24:29;;;;;;;8.13;7.37;;;;;;;27.74;59.78;99215.44;1766748;79;21095;-61
2021/07/30 04:26:56;;;;;;;7.72;7.03;;;;;;;27.77;59.79;99218.95;1759163;79;21026;-60
2021/07/30 04:29:23;;;;;;;8.45;7.65;;;;;;;27.78;59.68;99217.86;1791976;78;21153;-60
2021/07/30 04:31:49;;;;;;;7.78;7.05;;;;;;;27.79;59.67;99219.46;1765209;79;21157;-60
2021/07/30 04:34:15;;;;;;;9.15;6.83;;;;;;;27.81;59.69;99211.79;1821160;77;21115;-61
2021/07/30 04:36:42;;;;;;;7.22;6.53;;;;;;;27.84;59.56;99213.38;1831479;76;21085;-60
2021/07/30 04:41:14;;;;;;;7.83;7.20;;;;;;;27.91;59.53;99217.15;1856321;76;23220;-60
2021/07/30 04:43:41;;;;;;;7.65;6.95;;;;;;;27.86;59.49;99218.55;1821070;77;20944;-60
2021/07/30 04:46:15;;;;;;;7.62;6.92;;;;;;;27.89;59.48;99221.27;1818722;77;21121;-60
2021/07/30 04:48:43;;;;;;;8.80;7.90;;;;;;;27.92;59.45;99220.68;1819680;77;20976;-60
2021/07/30 04:51:11;;;;;;;8.08;7.47;;;;;;;27.92;59.27;99218.75;1828601;77;21578;-61
2021/07/30 04:53:38;;;;;;;7.17;6.60;;;;;;;27.94;59.12;99226.09;1819576;77;21569;-60
2021/07/30 04:56:05;;;;;;;7.70;7.08;;;;;;;27.95;59.20;99227.73;1818926;77;21084;-60
2021/07/30 04:58:31;;;;;;;9.40;7.40;;;;;;;27.96;59.26;99225.24;1814511;77;21080;-62
2021/07/30 05:01:03;;;;;;;7.42;6.42;;;;;;;27.99;59.21;99231.48;1823196;77;21656;-60
2021/07/30 05:03:30;;;;;;;8.23;7.53;;;;;;;28.02;59.32;99232.80;1820980;77;21583;-62
2021/07/30 05:05:56;;;;;;;7.92;7.22;;;;;;;28.03;59.31;99228.42;1823609;77;21069;-61
2021/07/30 05:08:23;;;;;;;7.67;7.00;;;;;;;28.07;59.30;99231.91;1822984;77;21504;-60
2021/07/30 05:10:51;;;;;;;8.85;8.05;;;;;;;28.08;59.05;99230.25;1813208;78;21095;-60
2021/07/30 05:13:17;;;;;;;9.40;8.33;;;;;;;28.11;59.00;99230.23;1814337;78;21075;-60
2021/07/30 05:15:43;;;;;;;9.80;7.87;;;;;;;28.12;59.38;99229.10;1824741;78;21584;-59
2021/07/30 05:18:09;;;;;;;10.48;7.80;;;;;;;28.15;59.67;99233.98;1818281;78;21079;-63
2021/07/30 05:20:41;;;;;;;11.90;7.08;;;;;;;28.15;59.56;99229.33;1821943;78;21036;-60
2021/07/30 05:23:08;;;;;;;10.28;7.95;;;;;;;28.18;59.47;99230.64;1815999;78;21103;-62
2021/07/30 05:25:34;;;;;;;9.10;7.30;;;;;;;28.20;59.44;99235.25;1807361;78;21031;-61
2021/07/30 05:28:01;;;;;;;8.20;7.50;;;;;;;28.23;59.38;99238.77;1810083;78;21036;-59
2021/07/30 05:30:27;;;;;;;10.85;7.53;;;;;;;28.24;59.20;99234.38;1804313;78;21092;-63
2021/07/30 05:32:54;;;;;;;9.15;7.42;;;;;;;28.26;59.08;99234.08;1811393;78;21512;-62
2021/07/30 05:35:20;;;;;;;11.68;7.97;;;;;;;28.28;59.12;99234.59;1817012;78;21575;-60
2021/07/30 05:37:47;;;;;;;9.63;7.37;;;;;;;28.32;58.95;99235.62;1836816;77;21057;-60
2021/07/30 05:40:13;;;;;;;8.43;7.40;;;;;;;28.34;58.88;99237.49;1813325;77;21008;-60
2021/07/30 05:42:40;;;;;;;10.13;8.75;;;;;;;28.37;59.10;99245.08;1812780;79;21013;-61
2021/07/30 05:45:08;;;;;;;8.58;7.87;;;;;;;28.39;59.09;99242.05;1805890;79;21096;-60
2021/07/30 05:47:35;;;;;;;8.75;7.78;;;;;;;28.41;58.95;99247.49;1808890;78;21099;-59
2021/07/30 05:50:01;;;;;;;8.58;7.67;;;;;;;28.43;58.82;99248.53;1788916;77;21469;-61
2021/07/30 05:52:27;;;;;;;8.38;7.67;;;;;;;28.46;58.83;99244.41;1808412;79;21076;-61
2021/07/30 05:54:54;;;;;;;8.68;7.87;;;;;;;28.48;58.76;99249.02;1778226;79;21041;-60
2021/07/30 05:57:20;;;;;;;9.13;8.15;;;;;;;28.50;58.60;99248.17;1778629;79;21062;-60
2021/07/30 05:59:48;;;;;;;10.35;7.72;;;;;;;28.50;58.19;99245.44;1791448;78;21130;-60
2021/07/30 06:02:14;;;;;;;10.35;8.55;;;;;;;28.49;58.37;99250.09;1783989;79;21242;-62
2021/07/30 06:04:41;;;;;;;8.75;7.95;;;;;;;28.50;58.38;99239.97;1809657;79;21127;-61
2021/07/30 06:07:07;;;;;;;8.85;8.03;;;;;;;28.52;58.22;99239.95;1805957;78;21517;-61
2021/07/30 06:09:34;;;;;;;9.05;8.15;;;;;;;28.55;58.29;99238.53;1798140;78;21041;-60
2021/07/30 06:12:01;;;;;;;9.10;8.30;;;;;;;28.56;58.12;99243.70;1806072;79;21113;-60
2021/07/30 06:14:27;;;;;;;9.38;7.78;;;;;;;28.58;58.28;99233.84;1738460;81;21043;-61
2021/07/30 06:16:53;;;;;;;8.23;7.50;;;;;;;28.60;58.25;99235.16;1685439;82;21031;-60
2021/07/30 06:19:20;;;;;;;9.20;7.78;;;;;;;28.62;58.35;99238.96;1788932;79;21132;-62
2021/07/30 06:21:46;;;;;;;9.08;7.85;;;;;;;28.62;58.17;99220.64;1809194;79;21679;-62
2021/07/30 06:24:12;;;;;;;8.80;7.97;;;;;;;28.66;57.99;99232.34;1810882;78;21096;-62
2021/07/30 06:26:38;;;;;;;9.65;8.65;;;;;;;28.67;57.78;99225.78;1812410;79;21022;-61
2021/07/30 06:29:05;;;;;;;9.00;8.30;;;;;;;28.67;57.71;99226.58;1798869;78;21032;-62
2021/07/30 06:31:31;;;;;;;9.50;8.60;;;;;;;28.69;57.71;99222.19;1802478;79;21101;-62
2021/07/30 06:33:58;;;;;;;9.65;8.48;;;;;;;28.72;57.58;99219.64;1813975;79;21088;-60
2021/07/30 06:36:25;;;;;;;8.55;7.70;;;;;;;28.75;57.40;99223.72;1794279;79;21365;-61
2021/07/30 06:38:51;;;;;;;8.95;8.10;;;;;;;28.76;57.27;99222.59;1802560;79;21032;-62
2021/07/30 06:41:18;;;;;;;8.88;8.00;;;;;;;28.78;57.14;99213.52;1809599;78;21052;-61
2021/07/30 06:43:45;;;;;;;8.63;7.87;;;;;;;28.80;56.97;99212.67;1818713;78;20994;-60
2021/07/30 06:46:13;;;;;;;9.03;8.13;;;;;;;28.82;56.89;99213.20;1814056;78;20992;-60
2021/07/30 06:48:41;;;;;;;49.95;21.68;;;;;;;28.84;57.06;99213.71;1814311;78;21190;-60
2021/07/30 06:51:11;;;;;;;12.35;9.15;;;;;;;28.78;82.54;99219.83;1823683;78;22260;-60
2021/07/30 06:53:38;;;;;;;10.18;8.65;;;;;;;28.67;75.68;99212.92;1755993;80;21338;-61
2021/07/30 06:56:12;;;;;;;16.32;10.72;;;;;;;28.42;72.24;99212.78;1753896;80;21517;-61
2021/07/30 06:58:40;;;;;;;14.38;10.20;;;;;;;28.15;68.68;99212.14;1767281;79;21057;-60
2021/07/30 07:01:07;;;;;;;14.50;9.50;;;;;;;27.97;66.25;99213.23;1770032;79;21143;-60
2021/07/30 07:03:33;;;;;;;11.15;8.93;;;;;;;27.95;65.49;99214.61;1767588;80;21481;-62
2021/07/30 07:05:59;;;;;;;10.85;9.43;;;;;;;28.02;64.62;99215.06;1771049;80;21065;-60
2021/07/30 07:08:27;;;;;;;10.95;8.73;;;;;;;28.13;64.08;99205.61;1777210;80;21577;-61
2021/07/30 07:10:53;;;;;;;11.40;8.45;;;;;;;28.24;63.02;99207.63;1785835;79;21090;-61
2021/07/30 07:13:21;;;;;;;9.88;7.78;;;;;;;28.35;62.09;99206.89;1753053;81;21064;-61
2021/07/30 07:15:49;;;;;;;9.48;8.58;;;;;;;28.44;61.44;99212.73;1764774;80;21105;-61
2021/07/30 07:18:15;;;;;;;9.13;8.23;;;;;;;28.53;61.21;99213.44;1758312;81;21536;-60
2021/07/30 07:20:42;;;;;;;10.38;8.13;;;;;;;28.61;60.53;99210.83;1773454;79;21074;-61
2021/07/30 07:23:08;;;;;;;8.95;8.08;;;;;;;28.69;60.04;99217.53;1781411;78;21108;-60
2021/07/30 07:25:34;;;;;;;9.80;8.20;;;;;;;28.76;59.57;99219.32;1776624;78;21113;-60
2021/07/30 07:28:01;;;;;;;9.13;7.83;;;;;;;28.81;58.93;99219.20;1754945;80;21625;-62
2021/07/30 07:30:28;;;;;;;9.33;8.43;;;;;;;28.85;58.19;99222.15;1758932;80;20994;-59
2021/07/30 07:32:54;;;;;;;8.43;7.58;;;;;;;28.91;58.00;99221.50;1760081;80;21578;-62
2021/07/30 07:35:20;;;;;;;8.70;7.80;;;;;;;28.95;57.66;99218.41;1765731;80;21053;-60
2021/07/30 07:37:47;;;;;;;9.03;8.08;;;;;;;29.00;57.11;99223.79;1762500;80;21135;-60
2021/07/30 07:40:13;;;;;;;11.00;8.08;;;;;;;29.02;56.66;99222.92;1760297;80;21006;-60
2021/07/30 07:42:40;;;;;;;8.95;7.37;;;;;;;29.05;56.55;99222.87;1762892;80;21057;-61
2021/07/30 07:45:08;;;;;;;8.00;7.28;;;;;;;29.08;56.49;99227.17;1764306;80;21104;-61
2021/07/30 07:47:35;;;;;;;10.00;7.22;;;;;;;29.12;56.13;99226.02;1774293;80;21110;-60
2021/07/30 07:50:02;;;;;;;8.68;7.60;;;;;;;29.14;55.32;99225.98;1818371;77;21223;-60
2021/07/30 07:52:38;;;;;;;9.13;7.37;;;;;;;29.17;54.98;99230.86;1815562;78;21044;-61
2021/07/30 07:55:07;;;;;;;7.85;7.15;;;;;;;29.19;54.77;99225.90;1808760;78;21025;-60
2021/07/30 07:57:34;;;;;;;8.48;7.58;;;;;;;29.23;55.16;99226.67;1791940;77;21136;-60
2021/07/30 08:00:00;;;;;;;8.08;7.15;;;;;;;29.25;55.10;99233.45;1817818;78;21089;-63
2021/07/30 08:02:26;;;;;;;8.70;7.12;;;;;;;29.27;54.97;99231.21;1808924;77;21144;-62
2021/07/30 08:04:53;;;;;;;8.35;6.95;;;;;;;29.32;55.12;99237.13;1817724;77;21076;-63
2021/07/30 08:07:20;;;;;;;8.20;7.40;;;;;;;29.33;54.52;99231.36;1814928;77;21112;-62
2021/07/30 08:09:46;;;;;;;7.55;6.85;;;;;;;29.37;53.68;99231.56;1803099;78;21049;-62
2021/07/30 08:12:13;;;;;;;7.50;6.72;;;;;;;29.40;53.22;99235.06;1807361;77;21599;-62
2021/07/30 08:14:41;;;;;;;7.35;6.65;;;;;;;29.42;53.40;99231.46;1818796;77;21045;-61
2021/07/30 08:17:08;;;;;;;7.58;6.97;;;;;;;29.44;53.25;99234.70;1813687;78;21115;-61
2021/07/30 08:19:36;;;;;;;9.93;7.47;;;;;;;29.48;53.63;99239.01;1818738;77;21009;-61
2021/07/30 08:22:03;;;;;;;7.37;6.78;;;;;;;29.48;51.70;99234.34;1811473;77;21539;-61
2021/07/30 08:24:30;;;;;;;7.70;7.00;;;;;;;29.50;51.42;99234.04;1819458;77;21029;-62
2021/07/30 08:26:57;;;;;;;7.40;6.70;;;;;;;29.51;51.73;99232.91;1820886;78;21120;-60
2021/07/30 08:29:23;;;;;;;5.85;5.35;;;;;;;29.52;51.79;99239.45;1812093;77;21471;-62
2021/07/30 08:31:49;;;;;;;6.33;5.72;;;;;;;29.53;49.55;99244.36;1813291;77;21088;-62
2021/07/30 08:34:58;;;;;;;6.33;5.78;;;;;;;29.54;49.04;99239.95;1813590;77;21051;-61
2021/07/30 08:37:41;;;;;;;6.45;5.87;;;;;;;29.56;47.98;99239.08;1703627;82;21078;-62
2021/07/30 08:40:11;;;;;;;6.75;6.05;;;;;;;29.56;48.43;99238.28;1796104;77;21849;-61
2021/07/30 08:42:38;;;;;;;7.50;6.80;;;;;;;29.56;48.08;99238.28;1826759;77;21009;-61
2021/07/30 08:45:06;;;;;;;7.65;6.37;;;;;;;29.57;47.67;99237.14;1823708;77;21103;-62
2021/07/30 08:47:32;;;;;;;7.20;6.50;;;;;;;29.57;47.54;99244.83;1823174;77;21088;-59
2021/07/30 08:49:59;;;;;;;7.12;6.50;;;;;;;29.57;47.07;99242.09;1827942;77;21530;-61
2021/07/30 08:52:37;;;;;;;6.53;5.92;;;;;;;29.58;47.01;99234.11;1825135;77;21096;-61
2021/07/30 08:55:04;;;;;;;5.95;5.45;;;;;;;29.57;46.69;99240.72;1818891;77;21005;-61
2021/07/30 08:57:30;;;;;;;6.35;5.85;;;;;;;29.57;45.07;99239.88;1824199;77;21076;-61
2021/07/30 09:00:10;;;;;;;6.10;5.50;;;;;;;29.57;45.11;99236.61;1826432;77;21511;-61
2021/07/30 09:02:36;;;;;;;6.45;5.80;;;;;;;29.59;45.39;99237.65;1818995;77;21552;-61
2021/07/30 09:05:27;;;;;;;6.53;5.80;;;;;;;29.60;45.51;99235.18;1822474;78;21064;-63
2021/07/30 09:07:54;;;;;;;6.45;5.80;;;;;;;29.61;45.44;99236.78;1821640;78;20996;-59
2021/07/30 09:10:40;;;;;;;7.05;6.45;;;;;;;29.61;45.16;99236.78;1823307;78;21489;-60
2021/07/30 09:13:25;;;;;;;5.95;5.45;;;;;;;29.62;45.12;99234.88;1765412;79;21552;-61
2021/07/30 09:16:06;;;;;;;5.70;5.20;;;;;;;29.65;44.28;99232.88;1773008;79;21049;-61
2021/07/30 09:18:38;;;;;;;5.95;5.40;;;;;;;29.66;43.19;99227.67;1772033;79;21116;-61
2021/07/30 09:21:31;;;;;;;6.75;5.15;;;;;;;29.67;42.44;99227.91;1770522;79;21552;-61
2021/07/30 09:24:03;;;;;;;;;;;;;;;29.69;41.93;99227.88;1748330;80;21563;-60
2021/07/30 09:26:46;;;;;;;5.10;4.70;;;;;;;29.70;41.63;99226.73;1781805;78;20186;-61
2021/07/30 09:29:19;;;;;;;5.65;4.60;;;;;;;29.68;43.69;99230.34;1765281;80;21132;-61
2021/07/30 09:32:07;;;;;;;4.92;4.53;;;;;;;29.73;44.30;99228.09;1762052;80;21617;-61
2021/07/30 09:34:49;;;;;;;5.12;4.53;;;;;;;29.76;43.23;99221.98;1757796;81;21317;-61
2021/07/30 09:37:22;;;;;;;5.22;4.72;;;;;;;29.79;44.42;99226.30;1764184;80;21592;-60
2021/07/30 09:39:51;;;;;;;4.75;4.35;;;;;;;29.83;43.18;99222.38;1775887;79;21045;-63
2021/07/30 09:42:22;;;;;;;5.78;5.25;;;;;;;29.86;43.03;99223.69;1762559;79;21043;-65
2021/07/30 09:45:05;;;;;;;4.97;4.58;;;;;;;29.88;43.00;99221.45;1760112;80;21138;-63
2021/07/30 09:47:29;;;;;;;4.62;4.22;;;;;;;29.92;42.96;99223.27;1756503;80;21393;-63
2021/07/30 09:50:04;;;;;;;5.10;4.67;;;;;;;29.95;41.86;99221.84;1755162;80;21149;-62
2021/07/30 09:52:33;;;;;;;5.05;4.65;;;;;;;30.00;42.76;99217.62;1759653;80;21058;-62
2021/07/30 09:55:08;;;;;;;5.65;5.17;;;;;;;30.05;43.14;99222.16;1759574;80;21108;-61
2021/07/30 09:57:37;;;;;;;5.08;4.67;;;;;;;30.08;42.73;99222.91;1759117;80;21171;-59
2021/07/30 10:00:12;;;;;;;5.40;4.87;;;;;;;30.12;42.13;99217.06;1760382;80;21073;-66
2021/07/30 10:02:43;;;;;;;5.20;4.80;;;;;;;30.16;41.20;99217.48;1758480;80;21030;-63
2021/07/30 10:05:10;;;;;;;5.25;4.62;;;;;;;30.21;41.14;99216.57;1732260;80;21550;-65
2021/07/30 10:07:38;;;;;;;6.05;5.45;;;;;;;30.27;41.16;99217.23;1763084;80;21070;-63
2021/07/30 10:10:18;;;;;;;5.22;4.72;;;;;;;30.33;41.87;99211.36;1764150;80;21087;-63
2021/07/30 10:12:56;;;;;;;5.62;4.65;;;;;;;30.40;42.06;99215.58;1814558;77;21048;-66
2021/07/30 10:15:19;;;;;;;4.50;4.15;;;;;;;30.43;40.27;99210.28;1815539;77;21065;-65
2021/07/30 10:17:52;;;;;;;5.55;5.05;;;;;;;30.49;39.36;99205.48;1812966;78;21293;-65
2021/07/30 10:20:20;;;;;;;6.12;5.58;;;;;;;30.54;40.76;99199.88;1812379;77;21049;-64
2021/07/30 10:23:07;;;;;;;7.78;7.08;;;;;;;30.61;41.27;99200.22;1808647;77;21101;-64
2021/07/30 10:25:41;;;;;;;137.88;35.17;;;;;;;30.66;41.55;99205.58;1804812;78;20983;-72
2021/07/30 10:28:12;;;;;;;57.70;19.75;;;;;;;30.71;41.38;99198.60;1814111;77;21084;-64
2021/07/30 10:31:07;;;;;;;13.30;9.00;;;;;;;30.74;44.83;99195.78;1808434;77;21514;-65
2021/07/30 10:33:40;;;;;;;14.78;9.23;;;;;;;30.74;44.83;99191.09;1813165;78;21021;-64
2021/07/30 10:36:09;;;;;;;12.30;8.88;;;;;;;30.75;45.83;99197.38;1809038;77;21850;-63
2021/07/30 10:38:35;;;;;;;8.33;5.85;;;;;;;30.77;45.87;99198.70;1814878;77;21537;-64
2021/07/30 10:41:11;;;;;;;7.10;6.40;;;;;;;30.80;43.70;99194.51;1809449;77;21042;-62
2021/07/30 10:43:55;;;;;;;5.87;5.25;;;;;;;30.83;42.92;99194.44;1826234;77;21072;-65
2021/07/30 10:46:22;;;;;;;6.25;5.65;;;;;;;30.89;41.90;99195.39;1821833;77;21014;-64
2021/07/30 10:48:50;;;;;;;7.55;6.33;;;;;;;30.95;43.85;99185.89;1820830;77;22780;-65
2021/07/30 10:51:27;;;;;;;6.72;6.12;;;;;;;31.00;44.36;99189.05;1827015;77;21120;-65
2021/07/30 10:54:04;;;;;;;6.92;6.22;;;;;;;31.05;44.29;99178.51;1819938;77;21148;-63
2021/07/30 10:56:40;;;;;;;8.08;5.75;;;;;;;31.09;43.90;99183.03;1824470;77;21495;-65
2021/07/30 10:59:06;;;;;;;5.92;5.30;;;;;;;31.13;43.13;99181.27;1825938;77;21052;-64
2021/07/30 11:01:46;;;;;;;6.33;5.72;;;;;;;31.16;42.47;99180.63;1826463;77;21096;-65
2021/07/30 11:04:12;;;;;;;6.80;5.53;;;;;;;31.18;42.63;99182.23;1818353;77;21597;-64
2021/07/30 11:06:46;;;;;;;5.67;4.92;;;;;;;31.19;42.28;99181.12;1822670;77;21100;-65
2021/07/30 11:09:16;;;;;;;5.10;4.60;;;;;;;31.21;40.91;99180.23;1824118;77;21041;-62
2021/07/30 11:12:00;;;;;;;5.03;4.62;;;;;;;31.24;40.74;99175.50;1828267;77;21045;-64
2021/07/30 11:14:34;;;;;;;5.12;4.58;;;;;;;31.26;40.80;99177.36;1822513;77;21327;-64
2021/07/30 11:17:08;;;;;;;6.47;4.97;;;;;;;31.30;40.46;99172.84;1813635;77;21417;-66
2021/07/30 11:19:48;;;;;;;5.30;4.80;;;;;;;31.30;40.47;99161.30;1822773;77;21627;-67
2021/07/30 11:22:18;;;;;;;5.95;5.45;;;;;;;31.32;40.33;99160.98;1816308;77;21049;-67
2021/07/30 11:24:47;;;;;;;5.65;4.97;;;;;;;31.26;39.50;99161.69;1822406;77;21909;-67
2021/07/30 11:27:16;;;;;;;5.95;5.40;;;;;;;31.19;38.58;99162.72;1827541;77;21131;-65
2021/07/30 11:29:44;;;;;;;5.80;5.30;;;;;;;31.11;37.88;99161.57;1821126;77;21021;-67
2021/07/30 11:32:14;;;;;;;5.83;5.33;;;;;;;31.02;37.30;99159.36;1817077;77;21009;-67
2021/07/30 11:34:42;;;;;;;5.72;5.12;;;;;;;30.94;36.91;99161.52;1801463;77;21096;-67
2021/07/30 11:37:11;;;;;;;5.35;4.95;;;;;;;30.86;36.55;99160.91;1826822;77;21591;-66
2021/07/30 11:39:42;;;;;;;6.05;4.97;;;;;;;30.78;36.35;99155.64;1831972;77;21110;-66
2021/07/30 11:42:08;;;;;;;5.45;4.95;;;;;;;30.72;36.07;99145.38;1826380;77;21037;-65